Time;durP1;ratioP1;P1;durP2;ratioP2;P2;SDS_P1;SDS_P2;PMS_P1;PMS_P2;Temp;Humidity;BMP_temperature;BMP_pressure;BME280_temperature;BME280_humidity;BME280_pressure;Samples;Min_cycle;Max_cycle;Signal;HPM_P1;HPM_P2
2023/09/13 00:02:23;;;;;;;39.37;30.80;;;20.20;99.90;;;;;;5054044;28;20525;-75
2023/09/13 00:04:54;;;;;;;40.80;30.00;;;20.20;99.90;;;;;;5053683;28;20508;-76
2023/09/13 00:07:23;;;;;;;39.63;31.23;;;20.10;99.90;;;;;;5054099;28;20434;-75
2023/09/13 00:09:51;;;;;;;37.00;29.80;;;20.10;99.90;;;;;;5054144;28;20445;-75
2023/09/13 00:12:19;;;;;;;41.17;32.47;;;20.10;99.90;;;;;;5053804;28;20944;-75
2023/09/13 00:14:48;;;;;;;42.00;33.70;;;20.10;99.90;;;;;;5053664;28;20478;-75
2023/09/13 00:17:18;;;;;;;39.73;33.10;;;20.10;99.90;;;;;;5053651;28;20441;-75
2023/09/13 00:19:46;;;;;;;39.70;32.20;;;20.10;99.90;;;;;;5052417;28;20956;-75
2023/09/13 00:22:15;;;;;;;37.00;29.60;;;20.10;99.90;;;;;;5053657;28;20521;-75
2023/09/13 00:24:44;;;;;;;41.47;31.40;;;20.10;99.90;;;;;;5053513;28;20481;-75
2023/09/13 00:27:12;;;;;;;41.37;30.40;;;20.10;99.90;;;;;;5053770;28;20434;-75
2023/09/13 00:29:40;;;;;;;41.27;32.67;;;20.10;99.90;;;;;;5052478;28;20485;-75
2023/09/13 00:32:08;;;;;;;40.93;32.60;;;20.10;99.90;;;;;;5054380;28;20434;-75
2023/09/13 00:34:37;;;;;;;41.33;32.40;;;20.10;99.90;;;;;;5053755;28;20450;-75
2023/09/13 00:37:05;;;;;;;40.23;31.30;;;20.10;99.90;;;;;;5052263;28;20504;-74
2023/09/13 00:39:35;;;;;;;39.73;32.67;;;20.10;99.90;;;;;;5053649;28;20438;-75
2023/09/13 00:42:04;;;;;;;41.20;32.20;;;20.10;99.90;;;;;;5053924;28;20487;-75
2023/09/13 00:44:32;;;;;;;39.33;31.40;;;20.10;99.90;;;;;;5053310;28;20905;-75
2023/09/13 00:47:00;;;;;;;39.50;31.70;;;20.00;99.90;;;;;;5052185;28;20987;-75
2023/09/13 00:49:28;;;;;;;40.27;34.47;;;20.00;99.90;;;;;;5051971;28;20449;-74
2023/09/13 00:51:58;;;;;;;39.33;30.90;;;20.00;99.90;;;;;;5053497;28;20444;-75
2023/09/13 00:54:27;;;;;;;43.90;33.00;;;20.00;99.90;;;;;;5051844;28;20470;-74
2023/09/13 00:56:58;;;;;;;40.63;32.60;;;20.00;99.90;;;;;;5051835;28;20968;-74
2023/09/13 00:59:26;;;;;;;40.17;31.43;;;20.00;99.90;;;;;;5052570;28;20423;-74
2023/09/13 01:01:54;;;;;;;40.40;32.13;;;20.00;99.90;;;;;;5051873;28;20968;-74
2023/09/13 01:04:23;;;;;;;41.63;34.27;;;20.00;99.90;;;;;;5051681;28;20470;-74
2023/09/13 01:06:52;;;;;;;41.27;32.80;;;20.00;99.90;;;;;;5051878;28;20868;-74
2023/09/13 01:09:21;;;;;;;41.93;33.43;;;20.00;99.90;;;;;;5051787;28;20449;-74
2023/09/13 01:11:50;;;;;;;40.53;32.77;;;20.00;99.90;;;;;;5051730;28;20452;-74
2023/09/13 01:14:21;;;;;;;43.50;34.70;;;19.90;99.90;;;;;;5051831;28;20485;-74
2023/09/13 01:17:01;;;;;;;40.97;34.53;;;19.90;99.90;;;;;;5051710;28;20517;-74
2023/09/13 01:19:50;;;;;;;41.87;33.47;;;19.90;99.90;;;;;;5053335;28;20509;-74
2023/09/13 01:22:39;;;;;;;42.30;34.80;;;19.90;99.90;;;;;;5051804;28;20434;-74
2023/09/13 01:25:50;;;;;;;43.67;34.53;;;19.90;99.90;;;;;;5051559;28;20501;-74
2023/09/13 01:28:35;;;;;;;47.60;35.67;;;19.90;99.90;;;;;;5051594;28;20486;-74
2023/09/13 01:31:06;;;;;;;40.90;33.37;;;19.90;99.90;;;;;;5051547;28;20438;-74
2023/09/13 01:33:35;;;;;;;43.30;34.27;;;19.80;99.90;;;;;;5051492;28;20442;-74
2023/09/13 01:36:04;;;;;;;40.20;33.53;;;19.80;99.90;;;;;;5052775;28;20521;-74
2023/09/13 01:38:32;;;;;;;40.90;33.37;;;19.90;99.90;;;;;;5052799;28;20441;-74
2023/09/13 01:41:06;;;;;;;45.07;33.33;;;19.80;99.90;;;;;;5051797;28;21086;-74
2023/09/13 01:43:38;;;;;;;42.97;35.10;;;19.80;99.90;;;;;;5051776;28;20434;-74
2023/09/13 01:46:07;;;;;;;43.63;33.20;;;19.80;99.90;;;;;;5051588;28;20996;-74
2023/09/13 01:48:35;;;;;;;41.50;35.57;;;19.80;99.90;;;;;;5051478;28;20442;-74
2023/09/13 01:51:04;;;;;;;45.77;36.20;;;19.80;99.90;;;;;;5052664;28;20806;-74
2023/09/13 01:53:33;;;;;;;47.03;36.17;;;19.80;99.90;;;;;;5052625;28;20449;-74
2023/09/13 01:56:01;;;;;;;42.30;34.50;;;19.80;99.90;;;;;;5051613;28;20476;-74
2023/09/13 01:58:30;;;;;;;45.13;34.77;;;19.80;99.90;;;;;;5051374;28;20446;-74
2023/09/13 02:01:00;;;;;;;43.83;34.80;;;19.80;99.90;;;;;;5051396;28;20482;-74
2023/09/13 02:03:28;;;;;;;41.53;34.87;;;19.80;99.90;;;;;;5052883;28;20468;-74
2023/09/13 02:05:57;;;;;;;47.63;36.33;;;19.80;99.90;;;;;;5051007;28;20508;-74
2023/09/13 02:08:25;;;;;;;47.73;37.07;;;19.80;99.90;;;;;;5051290;28;20876;-74
2023/09/13 02:10:54;;;;;;;46.73;36.43;;;19.80;99.90;;;;;;5054324;28;20766;-73
2023/09/13 02:13:22;;;;;;;43.40;35.23;;;19.80;99.90;;;;;;5056463;28;20524;-73
2023/09/13 02:15:50;;;;;;;61.13;38.17;;;19.70;99.90;;;;;;5054586;28;20507;-73
2023/09/13 02:18:20;;;;;;;42.13;35.77;;;19.70;99.90;;;;;;5055942;28;20430;-73
2023/09/13 02:20:48;;;;;;;46.60;35.90;;;19.70;99.90;;;;;;5055960;28;20445;-73
2023/09/13 02:23:16;;;;;;;44.60;35.57;;;19.70;99.90;;;;;;5054586;28;20438;-73
2023/09/13 02:25:45;;;;;;;43.90;34.67;;;19.70;99.90;;;;;;5054439;28;20473;-74
2023/09/13 02:28:14;;;;;;;38.53;31.30;;;19.70;99.90;;;;;;5055723;28;20434;-74
2023/09/13 02:30:42;;;;;;;33.20;27.60;;;19.70;99.90;;;;;;5054444;28;20446;-74
2023/09/13 02:33:11;;;;;;;28.33;24.60;;;19.70;99.90;;;;;;5055932;28;20797;-74
2023/09/13 02:35:40;;;;;;;31.27;25.60;;;19.60;99.90;;;;;;5055566;28;20470;-74
2023/09/13 02:38:09;;;;;;;33.33;26.97;;;19.60;99.90;;;;;;5054430;28;20446;-74
2023/09/13 02:40:38;;;;;;;31.67;24.30;;;19.60;99.90;;;;;;5054305;28;20465;-74
2023/09/13 02:43:07;;;;;;;30.23;25.90;;;19.60;99.90;;;;;;5054513;28;20545;-74
2023/09/13 02:45:35;;;;;;;33.93;27.07;;;19.60;99.90;;;;;;5055330;28;20847;-74
2023/09/13 02:48:05;;;;;;;30.20;24.33;;;19.60;99.90;;;;;;5054536;28;20803;-74
2023/09/13 02:50:33;;;;;;;30.77;26.53;;;19.60;99.90;;;;;;5054272;28;21030;-73
2023/09/13 02:53:03;;;;;;;29.77;25.50;;;19.60;99.90;;;;;;5054157;28;20437;-74
2023/09/13 02:55:31;;;;;;;31.90;24.50;;;19.60;99.90;;;;;;5054038;28;20565;-74
2023/09/13 02:57:59;;;;;;;28.07;24.57;;;19.60;99.90;;;;;;5055574;28;21025;-74
2023/09/13 03:00:28;;;;;;;29.50;25.60;;;19.60;99.90;;;;;;5054307;28;20524;-74
2023/09/13 03:02:57;;;;;;;32.30;26.97;;;19.60;99.90;;;;;;5053827;28;20469;-74
2023/09/13 03:05:26;;;;;;;32.57;25.30;;;19.60;99.90;;;;;;5053743;28;20508;-74
2023/09/13 03:07:56;;;;;;;37.10;28.20;;;19.60;99.90;;;;;;5053787;28;20442;-74
2023/09/13 03:10:27;;;;;;;37.00;27.50;;;19.60;99.90;;;;;;5053876;28;20492;-74
2023/09/13 03:12:56;;;;;;;33.10;27.47;;;19.60;99.90;;;;;;5053733;28;20436;-74
2023/09/13 03:15:24;;;;;;;44.17;33.77;;;19.60;99.90;;;;;;5053539;28;20489;-73
2023/09/13 03:17:53;;;;;;;40.40;33.13;;;19.60;99.90;;;;;;5053467;28;20941;-74
2023/09/13 03:20:21;;;;;;;40.17;34.27;;;19.60;99.90;;;;;;5053718;28;20533;-74
2023/09/13 03:22:49;;;;;;;42.33;33.60;;;19.60;99.90;;;;;;5052523;28;20442;-74
2023/09/13 03:25:18;;;;;;;38.37;31.50;;;19.60;99.90;;;;;;5053226;28;21074;-74
2023/09/13 03:27:49;;;;;;;36.53;27.70;;;19.60;99.90;;;;;;5053811;28;20446;-74
2023/09/13 03:30:17;;;;;;;30.00;25.83;;;19.60;99.90;;;;;;5053346;28;20454;-74
2023/09/13 03:32:46;;;;;;;25.73;22.67;;;19.60;99.90;;;;;;5053264;28;20860;-74
2023/09/13 03:35:14;;;;;;;26.47;21.53;;;19.60;99.90;;;;;;5054445;28;20461;-74
2023/09/13 03:37:42;;;;;;;25.47;21.07;;;19.60;99.90;;;;;;5053144;28;20521;-74
2023/09/13 03:40:11;;;;;;;27.40;23.63;;;19.50;99.90;;;;;;5054405;28;20488;-75
2023/09/13 03:42:40;;;;;;;24.97;20.80;;;19.50;99.90;;;;;;5053511;28;20508;-75
2023/09/13 03:45:10;;;;;;;25.37;21.20;;;19.40;99.90;;;;;;5053248;28;20496;-74
2023/09/13 03:47:38;;;;;;;22.30;17.70;;;19.40;99.90;;;;;;5053188;28;20980;-75
2023/09/13 03:50:08;;;;;;;24.40;17.33;;;19.40;99.90;;;;;;5052969;28;20521;-75
2023/09/13 03:52:36;;;;;;;22.60;19.27;;;19.30;99.90;;;;;;5054225;28;20465;-75
2023/09/13 03:55:06;;;;;;;22.80;19.03;;;19.30;99.90;;;;;;5054283;28;20521;-75
2023/09/13 03:57:34;;;;;;;25.70;17.30;;;19.20;99.90;;;;;;5052850;28;20462;-74
2023/09/13 04:00:04;;;;;;;20.90;16.37;;;19.20;99.90;;;;;;5054234;28;20432;-75
2023/09/13 04:02:41;;;;;;;20.60;15.30;;;19.20;99.90;;;;;;5054379;28;20418;-74
2023/09/13 04:05:09;;;;;;;20.43;17.07;;;19.10;99.90;;;;;;5052463;28;20489;-75
2023/09/13 04:07:38;;;;;;;20.70;16.73;;;19.10;99.90;;;;;;5052561;28;20993;-74
2023/09/13 04:10:07;;;;;;;20.20;17.00;;;19.00;99.90;;;;;;5053830;28;20430;-74
2023/09/13 04:12:35;;;;;;;20.63;14.80;;;19.00;99.90;;;;;;5052703;28;20457;-72
2023/09/13 04:15:04;;;;;;;15.63;12.77;;;19.00;99.90;;;;;;5052554;28;20473;-74
2023/09/13 04:17:32;;;;;;;24.73;14.70;;;18.90;99.90;;;;;;5053816;28;20430;-74
2023/09/13 04:20:01;;;;;;;14.23;11.67;;;18.90;99.90;;;;;;5054015;28;20445;-74
2023/09/13 04:22:31;;;;;;;14.53;11.90;;;18.90;99.90;;;;;;5052586;28;20454;-74
2023/09/13 04:24:59;;;;;;;11.90;9.10;;;18.80;99.90;;;;;;5053135;28;20468;-75
2023/09/13 04:27:28;;;;;;;11.60;8.93;;;18.80;99.90;;;;;;5053605;28;20498;-75
2023/09/13 04:29:56;;;;;;;11.67;9.10;;;18.70;99.90;;;;;;5053453;28;20430;-74
2023/09/13 04:32:25;;;;;;;10.80;8.93;;;18.70;99.90;;;;;;5052258;28;20969;-74
2023/09/13 04:34:55;;;;;;;8.60;7.60;;;18.60;99.90;;;;;;5051886;28;20561;-74
2023/09/13 04:37:25;;;;;;;10.70;8.23;;;18.60;99.90;;;;;;5052118;28;20442;-75
2023/09/13 04:39:54;;;;;;;10.47;8.03;;;18.60;99.90;;;;;;5052117;28;20453;-74
2023/09/13 04:42:22;;;;;;;10.87;8.43;;;18.50;99.90;;;;;;5052063;28;20493;-74
2023/09/13 04:44:51;;;;;;;10.20;8.30;;;18.50;99.90;;;;;;5051902;28;20474;-74
2023/09/13 04:47:19;;;;;;;11.50;8.53;;;18.50;99.90;;;;;;5053167;28;21022;-74
2023/09/13 04:49:47;;;;;;;9.03;7.97;;;18.40;99.90;;;;;;5051903;28;20458;-74
2023/09/13 04:52:15;;;;;;;12.73;7.60;;;18.30;99.90;;;;;;5051930;28;20453;-74
2023/09/13 04:54:45;;;;;;;9.53;7.83;;;18.40;99.90;;;;;;5051859;28;20461;-74
2023/09/13 04:57:13;;;;;;;10.73;9.60;;;18.30;99.90;;;;;;5051840;28;20442;-74
2023/09/13 04:59:44;;;;;;;12.60;9.20;;;18.20;99.90;;;;;;5051878;28;20450;-73
2023/09/13 05:02:13;;;;;;;13.73;10.73;;;18.20;99.90;;;;;;5051771;28;20442;-72
2023/09/13 05:04:43;;;;;;;9.97;8.90;;;18.20;99.90;;;;;;5052079;28;20569;-73
2023/09/13 05:07:12;;;;;;;13.57;10.80;;;18.20;99.90;;;;;;5053317;28;20457;-72
2023/09/13 05:09:40;;;;;;;12.00;9.77;;;18.20;99.90;;;;;;5053974;28;20438;-78
2023/09/13 05:12:10;;;;;;;12.60;9.43;;;18.20;99.90;;;;;;5052024;28;20479;-78
2023/09/13 05:14:42;;;;;;;9.77;8.60;;;18.10;99.90;;;;;;5051618;28;20470;-78
2023/09/13 05:17:11;;;;;;;9.47;8.40;;;18.10;99.90;;;;;;5053310;28;20814;-78
2023/09/13 05:19:39;;;;;;;11.17;8.50;;;18.10;99.90;;;;;;5051763;28;20478;-76
2023/09/13 05:22:07;;;;;;;13.90;10.00;;;18.10;99.90;;;;;;5051731;28;20481;-76
2023/09/13 05:24:35;;;;;;;11.07;9.60;;;18.00;99.90;;;;;;5052878;28;20458;-77
2023/09/13 05:27:04;;;;;;;12.93;10.23;;;18.00;99.90;;;;;;5051605;28;20452;-77
2023/09/13 05:29:33;;;;;;;11.00;9.73;;;18.00;99.90;;;;;;5051857;28;20528;-78
2023/09/13 05:32:01;;;;;;;12.67;9.80;;;17.90;99.90;;;;;;5051670;28;20425;-78
2023/09/13 05:34:29;;;;;;;12.70;10.03;;;17.90;99.90;;;;;;5052369;28;20946;-78
2023/09/13 05:36:58;;;;;;;11.10;9.90;;;17.90;99.90;;;;;;5052262;28;20531;-78
2023/09/13 05:39:26;;;;;;;13.30;9.47;;;17.80;99.90;;;;;;5054204;28;20547;-79
2023/09/13 05:41:55;;;;;;;13.97;9.80;;;17.80;99.90;;;;;;5053114;28;20452;-78
2023/09/13 05:44:24;;;;;;;12.80;9.83;;;17.80;99.90;;;;;;5053664;28;20459;-78
2023/09/13 05:46:55;;;;;;;13.40;10.23;;;17.80;99.90;;;;;;5058093;28;20469;-79
2023/09/13 05:49:23;;;;;;;9.93;8.00;;;17.80;99.90;;;;;;5055866;28;20972;-75
2023/09/13 05:51:51;;;;;;;12.80;10.17;;;17.70;99.90;;;;;;5055855;28;20412;-74
2023/09/13 05:54:19;;;;;;;11.07;8.30;;;17.70;99.90;;;;;;5056345;28;20968;-75
2023/09/13 05:56:47;;;;;;;9.73;8.00;;;17.70;99.90;;;;;;5055321;28;21037;-75
2023/09/13 05:59:15;;;;;;;10.90;8.43;;;17.60;99.90;;;;;;5056547;28;20430;-75
2023/09/13 06:01:44;;;;;;;10.80;7.50;;;17.70;99.90;;;;;;5056285;28;20417;-74
2023/09/13 06:04:13;;;;;;;10.90;7.00;;;17.60;99.90;;;;;;5056157;28;21000;-75
2023/09/13 06:06:41;;;;;;;9.07;7.90;;;17.60;99.90;;;;;;5056028;28;20416;-75
2023/09/13 06:09:09;;;;;;;8.87;7.00;;;17.60;99.90;;;;;;5056246;28;20434;-74
2023/09/13 06:11:38;;;;;;;9.20;7.80;;;17.60;99.90;;;;;;5054764;28;20425;-74
2023/09/13 06:14:07;;;;;;;9.27;8.07;;;17.60;99.90;;;;;;5056468;28;20446;-75
2023/09/13 06:16:38;;;;;;;9.57;7.53;;;17.60;99.90;;;;;;5054794;28;20533;-75
2023/09/13 06:19:07;;;;;;;9.33;7.37;;;17.50;99.90;;;;;;5056015;28;20528;-74
2023/09/13 06:21:36;;;;;;;8.77;6.77;;;17.60;99.90;;;;;;5054706;28;20499;-74
2023/09/13 06:24:05;;;;;;;8.43;5.43;;;17.50;99.90;;;;;;5055707;28;20588;-72
2023/09/13 06:26:34;;;;;;;6.90;5.73;;;17.50;99.90;;;;;;5055996;28;20470;-72
2023/09/13 06:29:02;;;;;;;7.40;5.03;;;17.40;99.90;;;;;;5054303;28;20520;-72
2023/09/13 06:31:30;;;;;;;7.17;6.47;;;17.40;99.90;;;;;;5054556;28;20499;-72
2023/09/13 06:34:03;;;;;;;8.63;7.40;;;17.40;99.90;;;;;;5055815;28;20949;-72
2023/09/13 06:36:35;;;;;;;7.90;7.13;;;17.40;99.90;;;;;;5054398;28;20416;-72
2023/09/13 06:39:05;;;;;;;6.70;5.80;;;17.30;99.90;;;;;;5055928;28;20492;-72
2023/09/13 06:41:33;;;;;;;6.93;5.53;;;17.30;99.90;;;;;;5055504;28;20449;-72
2023/09/13 06:44:03;;;;;;;9.20;6.90;;;17.20;99.90;;;;;;5055654;28;20433;-72
2023/09/13 06:46:37;;;;;;;7.30;5.80;;;17.10;99.90;;;;;;5055361;28;20422;-72
2023/09/13 06:49:07;;;;;;;6.83;6.00;;;17.10;99.90;;;;;;5055609;28;20465;-72
2023/09/13 06:51:37;;;;;;;7.00;4.60;;;17.10;99.90;;;;;;5054425;28;21044;-71
2023/09/13 06:54:08;;;;;;;6.40;4.83;;;17.00;99.90;;;;;;5055753;28;20502;-72
2023/09/13 06:56:42;;;;;;;7.50;5.50;;;17.00;99.90;;;;;;5055436;28;20437;-71
2023/09/13 06:59:12;;;;;;;7.17;4.50;;;16.90;99.90;;;;;;5055482;28;20419;-71
2023/09/13 07:01:44;;;;;;;5.70;5.10;;;16.90;99.90;;;;;;5056149;28;20414;-71
2023/09/13 07:04:32;;;;;;;8.20;5.07;;;16.80;99.90;;;;;;5055547;28;20444;-72
2023/09/13 07:07:11;;;;;;;5.80;4.80;;;16.70;99.90;;;;;;5055348;28;20479;-71
2023/09/13 07:09:41;;;;;;;6.57;4.97;;;16.70;99.90;;;;;;5055503;28;20451;-71
2023/09/13 07:12:09;;;;;;;5.83;5.00;;;16.60;99.90;;;;;;5055176;28;20430;-71
2023/09/13 07:14:37;;;;;;;4.70;4.10;;;16.60;99.90;;;;;;5055141;28;20834;-72
2023/09/13 07:17:05;;;;;;;8.63;4.43;;;16.50;99.90;;;;;;5054975;28;20405;-71
2023/09/13 07:19:34;;;;;;;6.73;3.40;;;16.50;99.90;;;;;;5055223;28;20807;-71
2023/09/13 07:22:03;;;;;;;5.60;3.50;;;16.40;99.90;;;;;;5053801;28;20421;-71
2023/09/13 07:24:32;;;;;;;3.57;3.10;;;16.40;99.90;;;;;;5053600;28;20475;-71
2023/09/13 07:27:00;;;;;;;4.57;3.10;;;16.30;99.90;;;;;;5055200;28;20444;-72
2023/09/13 07:29:29;;;;;;;4.43;2.70;;;16.30;99.90;;;;;;5054944;28;20440;-72
2023/09/13 07:31:57;;;;;;;6.07;2.70;;;16.20;99.90;;;;;;5055377;28;20485;-72
2023/09/13 07:34:25;;;;;;;6.80;2.57;;;16.20;99.90;;;;;;5053430;28;20452;-71
2023/09/13 07:37:00;;;;;;;5.87;2.83;;;16.20;99.90;;;;;;5053617;28;20417;-72
2023/09/13 07:39:29;;;;;;;7.33;2.90;;;16.20;99.90;;;;;;5054941;28;20516;-72
2023/09/13 07:42:00;;;;;;;4.53;2.20;;;16.10;99.90;;;;;;5054303;28;20417;-73
2023/09/13 07:44:29;;;;;;;3.50;1.90;;;16.10;99.90;;;;;;5053894;28;20510;-72
2023/09/13 07:46:57;;;;;;;5.33;2.70;;;16.10;99.90;;;;;;5055341;28;20444;-73
2023/09/13 07:49:26;;;;;;;5.07;2.57;;;16.00;99.90;;;;;;5054177;28;20470;-72
2023/09/13 07:51:54;;;;;;;6.97;2.60;;;16.00;99.90;;;;;;5053594;28;20442;-72
2023/09/13 07:54:22;;;;;;;4.37;2.50;;;16.00;99.90;;;;;;5054672;28;20539;-72
2023/09/13 07:56:50;;;;;;;3.03;1.93;;;15.90;99.90;;;;;;5054741;28;20869;-72
2023/09/13 07:59:20;;;;;;;3.83;2.30;;;15.90;99.90;;;;;;5054170;28;20504;-72
2023/09/13 08:01:50;;;;;;;5.57;2.33;;;15.90;99.90;;;;;;5054819;28;20389;-72
2023/09/13 08:04:18;;;;;;;5.50;2.47;;;15.90;99.90;;;;;;5053019;28;20500;-72
2023/09/13 08:06:47;;;;;;;7.97;2.80;;;15.80;99.90;;;;;;5054003;28;20417;-73
2023/09/13 08:09:16;;;;;;;6.40;2.50;;;15.80;99.90;;;;;;5052300;28;20904;-73
2023/09/13 08:11:46;;;;;;;4.63;2.30;;;15.80;99.90;;;;;;5053799;28;20463;-72
2023/09/13 08:14:15;;;;;;;4.50;2.10;;;15.80;99.90;;;;;;5053891;28;20444;-72
2023/09/13 08:16:44;;;;;;;5.73;3.10;;;15.70;99.90;;;;;;5052635;28;20425;-72
2023/09/13 08:19:13;;;;;;;4.73;2.50;;;15.70;99.90;;;;;;5053775;28;20831;-72
2023/09/13 08:21:41;;;;;;;8.20;2.53;;;15.80;99.90;;;;;;5053790;28;20426;-72
2023/09/13 08:24:09;;;;;;;5.50;3.00;;;15.80;99.90;;;;;;5053949;28;20473;-72
2023/09/13 08:26:37;;;;;;;5.77;2.30;;;15.80;99.90;;;;;;5054275;28;20441;-72
2023/09/13 08:29:06;;;;;;;5.93;2.23;;;15.80;99.90;;;;;;5053611;28;20443;-72
2023/09/13 08:31:34;;;;;;;5.73;2.67;;;15.80;99.90;;;;;;5053735;28;20412;-72
2023/09/13 08:34:03;;;;;;;6.50;2.67;;;15.80;99.90;;;;;;5053746;28;20991;-73
2023/09/13 08:36:33;;;;;;;5.23;2.20;;;15.80;99.90;;;;;;5053541;28;20461;-72
2023/09/13 08:39:01;;;;;;;8.47;2.70;;;15.80;99.90;;;;;;5053656;28;20455;-73
2023/09/13 08:41:29;;;;;;;5.33;3.23;;;15.80;99.90;;;;;;5053934;28;20521;-72
2023/09/13 08:43:59;;;;;;;4.43;2.63;;;15.80;99.90;;;;;;5053482;28;20457;-72
2023/09/13 08:46:28;;;;;;;4.93;2.20;;;15.80;99.90;;;;;;5052336;28;20437;-73
2023/09/13 08:48:58;;;;;;;3.20;2.20;;;15.80;99.90;;;;;;5051923;28;20444;-72
2023/09/13 08:51:28;;;;;;;8.10;2.30;;;15.80;99.90;;;;;;5052105;28;20423;-72
2023/09/13 08:53:57;;;;;;;6.00;2.40;;;15.80;99.90;;;;;;5051981;28;20514;-73
2023/09/13 08:56:25;;;;;;;4.80;2.40;;;15.80;99.90;;;;;;5053260;28;20452;-73
2023/09/13 08:58:54;;;;;;;6.90;2.57;;;15.80;99.90;;;;;;5053521;28;20443;-72
2023/09/13 09:01:26;;;;;;;5.87;2.40;;;15.80;99.90;;;;;;5051889;28;20479;-71
2023/09/13 09:03:55;;;;;;;3.43;2.13;;;15.80;99.90;;;;;;5053178;28;20481;-72
2023/09/13 09:06:24;;;;;;;4.37;2.83;;;15.80;99.90;;;;;;5051848;28;20450;-73
2023/09/13 09:08:55;;;;;;;4.63;2.70;;;15.80;99.90;;;;;;5053046;28;20474;-73
2023/09/13 09:11:26;;;;;;;9.90;2.30;;;15.80;99.90;;;;;;5053398;28;20401;-73
2023/09/13 09:13:57;;;;;;;4.87;2.40;;;15.80;99.90;;;;;;5053588;28;21066;-73
2023/09/13 09:16:27;;;;;;;3.43;2.13;;;15.80;99.90;;;;;;5051875;28;20652;-73
2023/09/13 09:18:57;;;;;;;2.80;1.90;;;15.80;99.90;;;;;;5052993;28;20801;-73
2023/09/13 09:21:25;;;;;;;4.17;2.07;;;15.80;99.90;;;;;;5055247;28;20444;-72
2023/09/13 09:23:56;;;;;;;4.40;2.30;;;15.80;99.90;;;;;;5056448;28;20454;-73
2023/09/13 09:26:24;;;;;;;5.87;2.70;;;15.80;99.90;;;;;;5055779;28;20444;-72
2023/09/13 09:28:53;;;;;;;3.17;1.90;;;15.80;99.90;;;;;;5055289;28;20448;-72
2023/09/13 09:31:25;;;;;;;8.73;2.03;;;15.80;99.90;;;;;;5056703;28;20400;-73
2023/09/13 09:34:03;;;;;;;5.30;2.20;;;15.70;99.90;;;;;;5056565;28;20460;-73
2023/09/13 09:36:34;;;;;;;5.13;1.87;;;15.70;99.90;;;;;;5055227;28;20438;-72
2023/09/13 09:39:04;;;;;;;6.87;2.20;;;15.70;99.90;;;;;;5056678;28;20389;-72
2023/09/13 09:41:33;;;;;;;4.00;2.30;;;15.70;99.90;;;;;;5055193;28;20442;-72
2023/09/13 09:44:01;;;;;;;3.83;2.27;;;15.70;99.90;;;;;;5056264;28;20560;-72
2023/09/13 09:46:30;;;;;;;6.70;2.27;;;15.70;99.90;;;;;;5056350;28;20413;-73
2023/09/13 09:48:59;;;;;;;6.80;1.93;;;15.80;99.90;;;;;;5056156;28;20444;-72
2023/09/13 09:51:29;;;;;;;5.80;2.33;;;15.70;99.90;;;;;;5056633;28;20765;-73
2023/09/13 09:53:58;;;;;;;4.63;2.10;;;15.70;99.90;;;;;;5056468;28;20486;-72
2023/09/13 09:56:30;;;;;;;6.50;2.80;;;15.80;99.90;;;;;;5055069;28;20474;-72
2023/09/13 09:58:58;;;;;;;3.50;2.07;;;15.80;99.90;;;;;;5056151;28;20887;-72
2023/09/13 10:01:27;;;;;;;4.40;2.37;;;15.80;99.90;;;;;;5056011;28;20474;-72
2023/09/13 10:03:58;;;;;;;3.17;2.03;;;15.80;99.90;;;;;;5054433;28;20943;-72
2023/09/13 10:06:26;;;;;;;6.00;2.67;;;15.80;99.90;;;;;;5016716;28;1121827;-72
2023/09/13 10:08:54;;;;;;;5.97;2.03;;;15.70;99.90;;;;;;5055822;28;20673;-72
2023/09/13 10:11:23;;;;;;;4.60;1.97;;;15.80;99.90;;;;;;5055755;28;20416;-72
2023/09/13 10:13:53;;;;;;;5.30;2.60;;;15.80;99.90;;;;;;5057563;28;20468;-72
2023/09/13 10:16:26;;;;;;;2.97;2.27;;;15.80;99.90;;;;;;5057299;28;20806;-72
2023/09/13 10:18:55;;;;;;;5.90;2.30;;;15.80;99.90;;;;;;5057608;28;20909;-72
2023/09/13 10:21:26;;;;;;;4.07;2.70;;;15.80;99.90;;;;;;5055758;28;20902;-72
2023/09/13 10:24:01;;;;;;;5.10;2.20;;;15.80;99.90;;;;;;5056883;28;20432;-72
2023/09/13 10:26:31;;;;;;;3.47;2.30;;;15.80;99.90;;;;;;5055884;28;20418;-72
2023/09/13 10:29:12;;;;;;;7.90;3.20;;;15.80;99.90;;;;;;5056266;28;20891;-72
2023/09/13 10:31:44;;;;;;;3.07;2.40;;;15.80;99.90;;;;;;5055392;28;20872;-72
2023/09/13 10:34:19;;;;;;;3.83;2.53;;;15.80;99.90;;;;;;5055963;28;20458;-72
2023/09/13 10:36:51;;;;;;;6.90;2.50;;;15.80;99.90;;;;;;5055717;28;20414;-72
2023/09/13 10:39:27;;;;;;;5.37;2.80;;;15.80;99.90;;;;;;5054367;28;20442;-72
2023/09/13 10:42:02;;;;;;;5.83;2.80;;;15.70;99.90;;;;;;5054242;28;20911;-72
2023/09/13 10:44:34;;;;;;;5.20;2.50;;;15.70;99.90;;;;;;5055811;28;20530;-72
2023/09/13 10:47:03;;;;;;;4.70;2.10;;;15.60;99.90;;;;;;5054440;28;20492;-72
2023/09/13 10:49:32;;;;;;;6.07;2.40;;;15.60;99.90;;;;;;5054028;28;20450;-72
2023/09/13 10:52:01;;;;;;;6.33;2.40;;;15.50;99.90;;;;;;5055356;28;20907;-72
2023/09/13 10:54:31;;;;;;;4.40;2.30;;;15.50;99.90;;;;;;5055255;28;20454;-72
2023/09/13 10:57:00;;;;;;;3.50;2.53;;;15.50;99.90;;;;;;5055478;28;20451;-72
2023/09/13 10:59:30;;;;;;;4.83;2.70;;;15.50;99.90;;;;;;5055520;28;20455;-72
2023/09/13 11:02:04;;;;;;;4.60;2.33;;;15.50;99.90;;;;;;5055512;28;20886;-72
2023/09/13 11:04:33;;;;;;;3.00;2.30;;;15.50;99.90;;;;;;5055630;28;20457;-72
2023/09/13 11:07:04;;;;;;;3.40;2.87;;;15.50;99.90;;;;;;5055147;28;20447;-72
2023/09/13 11:09:34;;;;;;;3.00;2.10;;;15.50;99.90;;;;;;5055047;28;20525;-72
2023/09/13 11:12:03;;;;;;;3.50;2.67;;;15.40;99.90;;;;;;5054030;28;20967;-72
2023/09/13 11:14:33;;;;;;;4.67;2.90;;;15.40;99.90;;;;;;5054836;28;20486;-72
2023/09/13 11:17:37;;;;;;;3.50;2.43;;;15.40;99.90;;;;;;5053526;28;20468;-72
2023/09/13 11:20:23;;;;;;;3.40;2.43;;;15.40;99.90;;;;;;5055288;28;20443;-72
2023/09/13 11:23:03;;;;;;;3.90;2.60;;;15.50;99.90;;;;;;5054794;28;20419;-72
2023/09/13 11:25:35;;;;;;;3.50;2.47;;;15.50;99.90;;;;;;5054546;28;20527;-72
2023/09/13 11:28:32;;;;;;;3.40;1.77;;;15.50;99.90;;;;;;5053446;28;20945;-72
2023/09/13 11:31:02;;;;;;;4.40;2.50;;;15.50;99.90;;;;;;5054901;28;20516;-72
2023/09/13 11:33:39;;;;;;;4.90;2.03;;;15.50;99.90;;;;;;5053234;28;20554;-72
2023/09/13 11:36:08;;;;;;;2.50;1.90;;;15.50;99.90;;;;;;5053287;28;20571;-73
2023/09/13 11:38:36;;;;;;;8.50;3.67;;;15.60;99.90;;;;;;5054834;28;20806;-72
2023/09/13 11:41:04;;;;;;;4.57;2.33;;;15.60;99.90;;;;;;5054485;28;20434;-72
2023/09/13 11:43:37;;;;;;;3.27;2.40;;;15.60;99.90;;;;;;5053650;28;20415;-72
2023/09/13 11:46:28;;;;;;;6.10;2.70;;;15.60;99.90;;;;;;5054421;28;20448;-72
2023/09/13 11:49:00;;;;;;;5.13;2.07;;;15.60;99.90;;;;;;5053221;28;20768;-72
2023/09/13 11:51:33;;;;;;;3.70;2.10;;;15.60;99.90;;;;;;5052943;28;20487;-72
2023/09/13 11:54:15;;;;;;;5.23;2.17;;;15.70;99.90;;;;;;5054022;28;20519;-72
2023/09/13 11:56:44;;;;;;;5.17;2.17;;;15.70;99.90;;;;;;5054515;28;20400;-72
2023/09/13 11:59:16;;;;;;;5.10;2.37;;;15.70;99.90;;;;;;5054132;28;20397;-72
2023/09/13 12:01:50;;;;;;;3.47;1.73;;;15.80;99.90;;;;;;5054741;28;20820;-72
2023/09/13 12:04:25;;;;;;;3.30;2.07;;;15.80;99.90;;;;;;5054515;28;20454;-72
2023/09/13 12:06:56;;;;;;;3.93;2.20;;;15.80;99.90;;;;;;5052879;28;20430;-72
2023/09/13 12:09:27;;;;;;;2.87;1.87;;;15.90;99.90;;;;;;5053998;28;20422;-72
2023/09/13 12:11:58;;;;;;;3.50;2.07;;;15.90;99.90;;;;;;5054182;28;20458;-72
2023/09/13 12:14:34;;;;;;;3.53;2.00;;;16.00;99.90;;;;;;5054045;28;20457;-72
2023/09/13 12:17:05;;;;;;;5.87;2.57;;;16.10;99.90;;;;;;5053943;28;20408;-72
2023/09/13 12:19:38;;;;;;;2.37;2.03;;;16.10;99.90;;;;;;5052880;28;20420;-72
2023/09/13 12:22:06;;;;;;;3.60;2.50;;;16.20;99.90;;;;;;5052660;28;20782;-73
2023/09/13 12:24:34;;;;;;;3.20;2.30;;;16.30;99.90;;;;;;5052525;28;20447;-73
2023/09/13 12:27:03;;;;;;;3.73;2.40;;;16.40;99.90;;;;;;5052352;28;20799;-72
2023/09/13 12:29:32;;;;;;;2.93;2.13;;;16.50;99.90;;;;;;5053881;28;20465;-72
2023/09/13 12:32:00;;;;;;;4.97;2.10;;;16.50;99.90;;;;;;5052301;28;20890;-72
2023/09/13 12:34:28;;;;;;;5.17;2.77;;;16.60;99.90;;;;;;5052267;28;20470;-72
2023/09/13 12:36:58;;;;;;;3.33;2.10;;;16.70;99.90;;;;;;5053600;28;20420;-72
2023/09/13 12:39:26;;;;;;;3.50;2.10;;;16.80;99.90;;;;;;5053545;28;20441;-72
2023/09/13 12:41:54;;;;;;;3.03;2.53;;;16.80;99.90;;;;;;5054030;28;20891;-72
2023/09/13 12:44:22;;;;;;;3.70;2.50;;;16.90;99.90;;;;;;5053571;28;20515;-72
2023/09/13 12:46:52;;;;;;;3.70;2.03;;;17.00;99.90;;;;;;5053380;28;20467;-72
2023/09/13 12:49:21;;;;;;;4.40;2.33;;;17.00;99.90;;;;;;5053592;28;20451;-72
2023/09/13 12:51:51;;;;;;;3.03;2.13;;;17.10;99.90;;;;;;5052122;28;20445;-72
2023/09/13 12:54:21;;;;;;;4.70;2.03;;;17.20;99.90;;;;;;5053831;28;20420;-72